createdAt,value
2017-10-29T00:17:19.725Z,61.50
2017-10-29T00:20:07.434Z,63.30
2017-10-29T00:22:48.792Z,65.30
2017-10-29T00:28:11.811Z,66.10
2017-10-29T00:30:55.888Z,65.50
2017-10-29T01:10:40.826Z,60.10
2017-10-29T01:13:09.182Z,60.60
2017-10-29T01:18:30.176Z,62.00
2017-10-29T01:20:58.416Z,61.80
2017-10-29T01:23:26.168Z,62.50
2017-10-29T01:25:53.912Z,64.10
2017-10-29T01:45:45.866Z,66.00
2017-10-29T02:05:36.573Z,72.40
2017-10-29T02:08:13.120Z,72.50
2017-10-29T02:30:52.880Z,75.30
2017-10-29T02:53:18.218Z,78.60
2017-10-29T02:55:55.985Z,76.30
2017-10-29T03:12:47.729Z,79.00
2017-10-29T03:15:20.084Z,78.70
2017-10-29T03:18:06.748Z,78.40
2017-10-29T03:20:39.036Z,79.80
2017-10-29T03:23:14.088Z,79.60
2017-10-29T03:25:53.139Z,79.50
2017-10-29T03:45:48.022Z,80.30
2017-10-29T03:48:21.722Z,80.40
2017-10-29T04:11:07.749Z,80.00
2017-10-29T04:31:03.416Z,82.90
2017-10-29T04:33:38.864Z,83.50
2017-10-29T04:36:20.895Z,82.20
2017-10-29T04:41:41.812Z,83.30
2017-10-29T04:52:50.356Z,82.80
2017-10-29T04:55:24.570Z,83.80
2017-10-29T04:58:01.419Z,83.70
2017-10-29T05:32:19.466Z,84.80
2017-10-29T05:35:00.274Z,84.80
2017-10-29T05:37:28.416Z,84.60
2017-10-29T05:39:56.097Z,86.20
2017-10-29T05:42:24.199Z,86.60
2017-10-29T05:44:51.925Z,85.90
2017-10-29T05:47:19.575Z,84.70
2017-10-29T05:49:47.260Z,84.40
2017-10-29T05:54:53.885Z,85.00
2017-10-29T05:57:21.648Z,85.30
2017-10-29T05:59:49.396Z,84.70
2017-10-29T06:02:17.084Z,85.00
2017-10-29T06:04:46.803Z,84.60
2017-10-29T06:09:59.782Z,83.30
2017-10-29T06:12:28.115Z,84.20
2017-10-29T06:14:56.582Z,83.30
2017-10-29T06:17:24.314Z,83.90
2017-10-29T06:19:51.988Z,83.30
2017-10-29T06:22:19.682Z,82.70
2017-10-29T06:24:47.401Z,82.50
2017-10-29T06:27:15.059Z,82.50
2017-10-29T06:29:45.443Z,83.40
2017-10-29T06:32:13.173Z,82.50
2017-10-29T06:34:42.647Z,83.60
2017-10-29T06:37:10.771Z,82.80
2017-10-29T06:39:38.509Z,83.30
2017-10-29T06:42:06.609Z,82.90
2017-10-29T06:44:34.278Z,82.90
2017-10-29T06:47:04.280Z,83.00
2017-10-29T06:49:30.654Z,83.80
2017-10-29T06:51:58.318Z,83.80
2017-10-29T06:54:31.445Z,83.30
2017-10-29T06:56:59.175Z,83.00
2017-10-29T06:59:26.920Z,82.60
2017-10-29T07:01:55.234Z,83.70
2017-10-29T07:04:23.443Z,83.30
2017-10-29T07:06:51.195Z,81.70
2017-10-29T07:09:19.901Z,79.90
2017-10-29T07:22:29.179Z,78.80
2017-10-29T07:25:02.057Z,77.00
2017-10-29T07:27:31.044Z,78.00
2017-10-29T07:29:58.749Z,78.60
2017-10-29T07:32:26.895Z,76.80
2017-10-29T07:34:54.602Z,78.50
2017-10-29T07:37:22.571Z,74.60
2017-10-29T07:39:50.825Z,74.80
2017-10-29T07:42:18.549Z,72.90
2017-10-29T07:44:46.238Z,73.70
2017-10-29T07:47:14.110Z,72.20
2017-10-29T07:49:41.876Z,71.10
2017-10-29T07:52:09.811Z,69.70
2017-10-29T07:54:37.561Z,70.20
2017-10-29T07:57:05.848Z,70.80
2017-10-29T07:59:33.568Z,70.70
2017-10-29T08:02:02.201Z,72.00
2017-10-29T08:04:29.884Z,68.10
2017-10-29T08:06:57.522Z,69.60
2017-10-29T08:09:25.221Z,70.90
2017-10-29T08:11:52.853Z,66.70
2017-10-29T08:14:20.507Z,70.40
2017-10-29T08:16:48.199Z,69.40
2017-10-29T08:19:15.818Z,67.10
2017-10-29T08:21:43.497Z,66.30
2017-10-29T08:24:11.546Z,66.20
2017-10-29T08:26:40.019Z,65.20
2017-10-29T08:29:07.699Z,66.40
2017-10-29T08:31:35.393Z,65.70
2017-10-29T08:34:03.036Z,63.30
2017-10-29T08:36:30.661Z,63.30
2017-10-29T08:38:58.366Z,62.00
2017-10-29T08:41:25.992Z,61.30
2017-10-29T08:43:54.546Z,60.00
2017-10-29T08:49:01.411Z,60.60
2017-10-29T08:51:29.028Z,60.20
2017-10-29T08:56:47.020Z,58.20
2017-10-29T08:59:14.580Z,57.70
2017-10-29T09:51:44.290Z,46.30
2017-10-29T09:54:11.894Z,46.70
2017-10-29T09:56:39.526Z,46.60
2017-10-29T09:59:07.201Z,47.70
2017-10-29T10:01:35.650Z,47.20
2017-10-29T10:04:03.285Z,46.20
2017-10-29T10:06:30.970Z,45.40
2017-10-29T10:08:58.589Z,45.60
2017-10-29T10:11:26.219Z,45.60
2017-10-29T10:13:53.918Z,44.30
2017-10-29T10:16:21.543Z,44.80
2017-10-29T10:18:49.184Z,45.40
2017-10-29T10:21:16.868Z,44.50
2017-10-29T10:23:44.497Z,45.40
2017-10-29T10:28:50.957Z,46.40
2017-10-29T10:31:18.581Z,45.60
2017-10-29T10:33:46.223Z,47.40
2017-10-29T10:36:13.902Z,47.00
2017-10-29T10:38:41.791Z,48.40
2017-10-29T10:41:10.351Z,46.40
2017-10-29T10:43:39.012Z,48.40
2017-10-29T10:46:07.367Z,49.70
2017-10-29T10:48:34.993Z,47.80
2017-10-29T10:51:02.683Z,50.90
2017-10-29T10:53:30.300Z,49.60
2017-10-29T10:55:58.641Z,50.60
2017-10-29T10:58:26.326Z,48.30
2017-10-29T11:00:53.943Z,48.60
2017-10-29T11:03:21.574Z,49.70
2017-10-29T11:05:49.309Z,50.60
2017-10-29T11:08:16.939Z,47.70
2017-10-29T11:10:44.562Z,50.30
2017-10-29T11:13:12.259Z,47.90
2017-10-29T11:18:07.522Z,50.50
2017-10-29T11:20:35.210Z,52.20
2017-10-29T11:23:03.686Z,52.20
2017-10-29T11:25:31.320Z,52.70
2017-10-29T11:27:59.984Z,53.30
2017-10-29T11:30:27.658Z,54.20
2017-10-29T11:32:55.298Z,55.70
2017-10-29T11:35:22.992Z,57.20
2017-10-29T11:37:50.642Z,57.70
2017-10-29T11:40:18.268Z,57.70
2017-10-29T11:45:14.428Z,57.70
2017-10-29T11:47:42.072Z,60.90
2017-10-29T11:52:48.904Z,61.50
2017-10-29T11:55:17.468Z,58.30
2017-10-29T11:57:45.116Z,58.40
2017-10-29T12:00:13.611Z,58.20
2017-10-29T12:02:42.276Z,58.80
2017-10-29T12:07:38.412Z,54.00
2017-10-29T12:12:33.740Z,55.40
2017-10-29T12:15:01.393Z,56.70
2017-10-29T12:17:29.089Z,57.90
2017-10-29T12:19:56.753Z,55.80
2017-10-29T12:22:25.352Z,56.00
2017-10-29T12:24:54.298Z,54.50
2017-10-29T12:27:21.938Z,55.90
2017-10-29T12:29:49.590Z,55.10
2017-10-29T12:32:17.303Z,56.00
2017-10-29T12:34:44.965Z,57.50
2017-10-29T12:37:13.544Z,58.50
2017-10-29T12:39:42.258Z,58.80
2017-10-29T12:42:10.640Z,53.50
2017-10-29T12:44:39.112Z,56.00
2017-10-29T12:47:07.638Z,51.40
2017-10-29T12:49:35.287Z,52.70
2017-10-29T12:54:31.466Z,49.30
2017-10-29T12:57:00.067Z,48.70
2017-10-29T12:59:27.719Z,50.20
2017-10-29T13:01:55.930Z,49.50
2017-10-29T13:04:24.218Z,51.70
2017-10-29T13:06:51.842Z,49.10
2017-10-29T13:09:19.563Z,49.70
2017-10-29T13:11:47.188Z,48.70
2017-10-29T13:14:15.685Z,51.00
2017-10-29T13:21:50.156Z,51.80
2017-10-29T13:24:17.810Z,51.20
2017-10-29T13:26:45.451Z,50.60
2017-10-29T13:29:13.145Z,50.40
2017-10-29T13:31:43.857Z,52.30
2017-10-29T13:36:55.840Z,53.40
2017-10-29T13:39:23.554Z,53.60
2017-10-29T13:41:53.500Z,55.90
2017-10-29T13:44:19.242Z,57.70
2017-10-29T13:49:14.612Z,57.90
2017-10-29T13:51:42.331Z,58.10
2017-10-29T13:54:09.978Z,57.90
2017-10-29T13:56:37.621Z,57.90
2017-10-29T13:59:05.301Z,59.50
2017-10-29T14:01:33.209Z,60.60
2017-10-29T14:04:00.845Z,62.90
2017-10-29T14:06:28.548Z,64.80
2017-10-29T14:08:56.178Z,62.90
2017-10-29T14:11:24.176Z,60.10
2017-10-29T14:13:51.882Z,58.50
2017-10-29T14:16:19.508Z,61.80
2017-10-29T14:18:47.172Z,62.10
2017-10-29T14:21:14.867Z,63.10
2017-10-29T14:23:43.482Z,62.00
2017-10-29T14:26:11.113Z,62.10
2017-10-29T14:28:38.813Z,63.00
2017-10-29T14:31:06.464Z,66.90
2017-10-29T14:33:35.533Z,66.40
2017-10-29T14:36:03.274Z,63.70
2017-10-29T14:38:35.824Z,66.20
2017-10-29T14:41:03.530Z,63.30
2017-10-29T14:46:26.782Z,56.40
2017-10-29T14:48:54.375Z,59.00
2017-10-29T14:51:22.027Z,58.50
2017-10-29T14:56:17.438Z,58.70
2017-10-29T14:58:45.073Z,60.30
2017-10-29T15:01:12.786Z,63.90
2017-10-29T15:03:40.428Z,64.20
2017-10-29T15:06:08.105Z,64.50
2017-10-29T15:08:35.819Z,65.70
2017-10-29T15:11:03.491Z,62.50
2017-10-29T15:13:31.233Z,64.50
2017-10-29T15:15:58.853Z,63.60
2017-10-29T15:18:26.498Z,65.10
2017-10-29T15:23:21.841Z,65.40
2017-10-29T15:25:49.492Z,65.20
2017-10-29T15:28:17.133Z,64.70
2017-10-29T15:30:44.836Z,64.90
2017-10-29T15:33:12.473Z,74.10
2017-10-29T15:35:40.939Z,73.20
2017-10-29T15:38:08.658Z,77.30
2017-10-29T15:40:36.287Z,76.80
2017-10-29T15:43:03.918Z,77.30
2017-10-29T15:45:31.611Z,77.50
2017-10-29T15:47:59.266Z,77.30
2017-10-29T15:50:26.916Z,77.80
2017-10-29T15:52:54.612Z,79.40
2017-10-29T15:55:22.248Z,81.00
2017-10-29T15:57:50.749Z,80.10
2017-10-29T16:00:18.883Z,80.50
2017-10-29T16:02:46.212Z,80.70
2017-10-29T16:10:38.202Z,74.00
2017-10-29T16:13:07.958Z,76.50
2017-10-29T16:15:33.829Z,77.20
2017-10-29T16:18:01.520Z,78.50
2017-10-29T16:20:29.652Z,61.70
2017-10-29T16:22:57.331Z,73.20
2017-10-29T16:25:25.690Z,71.60
2017-10-29T16:33:03.427Z,61.00
2017-10-29T16:35:31.112Z,67.70
2017-10-29T16:37:58.790Z,72.10
2017-10-29T16:40:26.491Z,66.10
2017-10-29T16:42:54.808Z,65.50
2017-10-29T16:45:22.445Z,65.10
2017-10-29T16:50:17.818Z,65.10
2017-10-29T16:52:45.461Z,64.10
2017-10-29T16:55:13.466Z,66.20
2017-10-29T16:57:40.861Z,68.30
2017-10-29T17:02:49.444Z,73.20
2017-10-29T17:05:17.090Z,74.80
2017-10-29T17:07:44.771Z,67.50
2017-10-29T17:10:12.516Z,68.80
2017-10-29T17:12:40.132Z,73.60
2017-10-29T17:15:07.800Z,74.40
2017-10-29T17:17:35.485Z,74.20
2017-10-29T17:20:04.603Z,72.80
2017-10-29T17:22:31.874Z,73.10
2017-10-29T17:24:59.581Z,76.30
2017-10-29T17:27:27.228Z,75.80
2017-10-29T17:29:54.879Z,77.10
2017-10-29T17:32:22.573Z,74.00
2017-10-29T17:34:50.227Z,76.00
2017-10-29T17:37:18.373Z,75.20
2017-10-29T17:39:46.069Z,75.00
2017-10-29T17:42:13.693Z,74.00
2017-10-29T17:44:42.179Z,74.20
2017-10-29T17:47:09.902Z,74.20
2017-10-29T17:49:37.534Z,73.20
2017-10-29T17:52:05.186Z,73.70
2017-10-29T17:54:33.733Z,74.60
2017-10-29T17:57:01.366Z,73.30
2017-10-29T18:01:56.731Z,75.00
2017-10-29T18:04:24.514Z,74.00
2017-10-29T18:06:52.134Z,74.90
2017-10-29T18:09:20.790Z,74.40
2017-10-29T18:11:48.643Z,72.30
2017-10-29T18:14:17.277Z,71.40
2017-10-29T18:19:12.693Z,72.90
2017-10-29T18:21:41.307Z,71.20
2017-10-29T18:24:09.124Z,73.70
2017-10-29T18:29:17.297Z,69.70
2017-10-29T18:31:47.700Z,69.30
2017-10-29T18:37:00.231Z,70.10
2017-10-29T18:39:29.169Z,68.60
2017-10-29T18:41:56.459Z,70.00
2017-10-29T18:44:24.176Z,65.20
2017-10-29T18:46:53.119Z,63.00
2017-10-29T18:49:20.898Z,66.70
2017-10-29T18:51:49.492Z,67.20
2017-10-29T18:54:17.975Z,64.50
2017-10-29T18:56:47.607Z,65.00
2017-10-29T19:01:47.420Z,66.40
2017-10-29T19:04:16.234Z,70.20
2017-10-29T19:06:45.984Z,72.00
2017-10-29T19:09:16.286Z,72.30
2017-10-29T19:14:11.681Z,73.00
2017-10-29T19:16:40.227Z,73.10
2017-10-29T19:19:09.537Z,72.70
2017-10-29T19:21:37.174Z,72.70
2017-10-29T19:24:04.954Z,72.30
2017-10-29T19:26:33.463Z,72.60
2017-10-29T19:29:03.780Z,72.40
2017-10-29T19:31:36.185Z,73.60
2017-10-29T19:34:04.834Z,74.00
2017-10-29T19:36:33.716Z,73.50
2017-10-29T19:39:01.457Z,72.00
2017-10-29T19:44:12.376Z,75.00
2017-10-29T19:46:40.677Z,72.30
2017-10-29T19:49:08.302Z,74.20
2017-10-29T19:51:36.099Z,73.40
2017-10-29T19:54:03.774Z,73.90
2017-10-29T19:56:31.454Z,74.80
2017-10-29T19:58:59.153Z,70.20
2017-10-29T20:01:26.804Z,71.10
2017-10-29T20:03:54.666Z,67.50
2017-10-29T20:06:22.872Z,69.80
2017-10-29T20:08:59.620Z,65.80
2017-10-29T20:11:27.315Z,65.30
2017-10-29T20:13:55.029Z,67.20
2017-10-29T20:16:22.723Z,67.50
2017-10-29T20:18:50.672Z,71.00
2017-10-29T20:21:19.263Z,72.80
2017-10-29T20:23:47.259Z,71.90
2017-10-29T20:26:15.249Z,73.80
2017-10-29T20:28:42.917Z,58.10
2017-10-29T20:33:56.062Z,60.30
2017-10-29T20:36:23.840Z,64.80
2017-10-29T20:38:53.465Z,57.40
2017-10-29T20:41:20.249Z,59.20
2017-10-29T20:43:47.934Z,54.20
2017-10-29T20:46:15.565Z,55.80
2017-10-29T20:48:43.306Z,67.70
2017-10-29T20:53:40.379Z,65.00
2017-10-29T20:56:08.123Z,66.50
2017-10-29T21:06:25.871Z,57.90
2017-10-29T21:08:54.563Z,55.00
2017-10-29T21:11:28.041Z,52.50
2017-10-29T21:13:55.757Z,54.70
2017-10-29T21:19:02.678Z,57.70
2017-10-29T21:24:06.151Z,57.20
2017-10-29T21:26:34.644Z,57.00
2017-10-29T21:29:08.228Z,55.40
2017-10-29T21:34:31.404Z,52.30
2017-10-29T21:37:00.326Z,55.60
2017-10-29T21:39:27.965Z,55.60
2017-10-29T21:44:24.234Z,53.00
2017-10-29T21:46:52.395Z,58.30
2017-10-29T21:49:20.509Z,55.20
2017-10-29T21:51:52.414Z,57.50
2017-10-29T21:54:20.066Z,57.50
2017-10-29T21:59:15.437Z,62.40
2017-10-29T22:01:43.116Z,64.00
2017-10-29T22:04:10.812Z,66.80
2017-10-29T22:09:07.451Z,67.30
2017-10-29T22:11:35.180Z,66.90
2017-10-29T22:14:03.311Z,57.90
2017-10-29T22:16:31.489Z,50.10
2017-10-29T22:18:59.197Z,52.10
2017-10-29T22:21:26.863Z,54.30
2017-10-29T22:23:54.908Z,62.50
2017-10-29T22:26:22.825Z,65.00
2017-10-29T22:31:19.905Z,68.50
2017-10-29T22:33:47.647Z,68.80
2017-10-29T22:38:48.121Z,69.90
2017-10-29T22:43:49.154Z,69.90
2017-10-29T22:46:17.763Z,70.10
2017-10-29T22:48:45.418Z,70.10
2017-10-29T22:53:52.972Z,69.30
2017-10-29T22:56:20.616Z,69.10
2017-10-29T22:58:48.257Z,68.10
2017-10-29T23:01:15.961Z,69.20
2017-10-29T23:03:43.604Z,67.00
2017-10-29T23:08:55.906Z,66.20
2017-10-29T23:11:25.070Z,68.80
2017-10-29T23:13:52.707Z,69.00
2017-10-29T23:16:21.181Z,68.00
2017-10-29T23:18:49.729Z,67.60
2017-10-29T23:21:17.827Z,68.00
2017-10-29T23:23:45.467Z,67.20
2017-10-29T23:26:13.591Z,68.10
2017-10-29T23:28:42.059Z,67.60
2017-10-29T23:33:39.648Z,66.70
2017-10-29T23:36:07.297Z,67.50
2017-10-29T23:38:35.902Z,68.10
2017-10-29T23:41:03.590Z,68.40
2017-10-29T23:43:31.234Z,68.90
2017-10-29T23:45:58.890Z,70.10
2017-10-29T23:48:26.629Z,70.90
2017-10-29T23:50:54.299Z,66.20
2017-10-29T23:53:23.290Z,67.20
2017-10-29T23:55:50.989Z,68.80
2017-10-29T23:58:18.983Z,68.30
